createdAt,value
2017-07-15T00:00:02.676Z,11.30
2017-07-15T00:02:29.313Z,9.77
2017-07-15T00:04:55.959Z,10.57
2017-07-15T00:07:22.583Z,11.83
2017-07-15T00:09:49.236Z,9.90
2017-07-15T00:12:15.906Z,10.10
2017-07-15T00:14:42.522Z,4.90
2017-07-15T00:17:09.160Z,4.20
2017-07-15T00:19:35.820Z,3.93
2017-07-15T00:22:02.447Z,2.47
2017-07-15T00:24:29.083Z,2.00
2017-07-15T00:26:55.712Z,1.60
2017-07-15T00:29:22.355Z,2.53
2017-07-15T00:31:49.004Z,2.40
2017-07-15T00:34:15.619Z,2.53
2017-07-15T00:36:42.245Z,2.10
2017-07-15T00:39:08.893Z,2.73
2017-07-15T00:41:35.529Z,2.83
2017-07-15T00:44:02.190Z,3.90
2017-07-15T00:46:29.532Z,2.43
2017-07-15T00:48:56.180Z,2.73
2017-07-15T00:51:22.810Z,2.30
2017-07-15T00:53:49.432Z,5.13
2017-07-15T00:56:16.076Z,3.87
2017-07-15T00:58:42.690Z,4.53
2017-07-15T01:01:09.323Z,2.90
2017-07-15T01:03:35.937Z,4.53
2017-07-15T01:06:02.577Z,3.00
2017-07-15T01:08:29.192Z,3.13
2017-07-15T01:10:55.812Z,2.60
2017-07-15T01:13:22.464Z,2.60
2017-07-15T01:15:49.082Z,6.33
2017-07-15T01:18:15.712Z,2.77
2017-07-15T01:20:42.357Z,3.20
2017-07-15T01:23:09.001Z,2.90
2017-07-15T01:25:35.631Z,2.77
2017-07-15T01:28:02.266Z,2.27
2017-07-15T01:30:28.915Z,3.17
2017-07-15T01:32:55.531Z,3.43
2017-07-15T01:35:22.158Z,3.53
2017-07-15T01:37:48.795Z,3.27
2017-07-15T01:40:15.429Z,4.27
2017-07-15T01:42:42.072Z,3.47
2017-07-15T01:45:08.700Z,3.00
2017-07-15T01:47:35.724Z,3.97
2017-07-15T01:50:02.348Z,3.10
2017-07-15T01:52:28.960Z,3.57
2017-07-15T01:54:55.595Z,3.10
2017-07-15T01:57:22.233Z,3.43
2017-07-15T01:59:48.861Z,4.00
2017-07-15T02:02:15.482Z,3.23
2017-07-15T02:04:42.193Z,3.60
2017-07-15T02:07:08.821Z,3.07
2017-07-15T02:09:35.467Z,3.00
2017-07-15T02:12:02.094Z,3.10
2017-07-15T02:14:28.712Z,3.10
2017-07-15T02:16:55.340Z,2.50
2017-07-15T02:19:21.975Z,4.17
2017-07-15T02:21:48.615Z,3.80
2017-07-15T02:24:15.261Z,3.50
2017-07-15T02:26:41.876Z,2.50
2017-07-15T02:29:08.539Z,3.47
2017-07-15T02:31:35.153Z,2.90
2017-07-15T02:34:01.796Z,4.80
2017-07-15T02:36:28.443Z,4.47
2017-07-15T02:38:55.075Z,4.37
2017-07-15T02:41:21.727Z,3.23
2017-07-15T02:43:48.346Z,4.00
2017-07-15T02:46:14.970Z,4.10
2017-07-15T02:48:41.626Z,4.03
2017-07-15T02:51:08.248Z,2.93
2017-07-15T02:53:34.883Z,3.23
2017-07-15T02:56:01.504Z,3.50
2017-07-15T02:58:28.120Z,3.83
2017-07-15T03:00:54.780Z,3.83
2017-07-15T03:03:21.409Z,3.73
2017-07-15T03:05:48.064Z,4.50
2017-07-15T03:08:14.699Z,3.57
2017-07-15T03:10:41.347Z,4.03
2017-07-15T03:13:08.002Z,5.27
2017-07-15T03:15:34.624Z,3.60
2017-07-15T03:18:01.250Z,3.13
2017-07-15T03:20:27.889Z,3.03
2017-07-15T03:22:54.520Z,3.67
2017-07-15T03:25:21.292Z,3.93
2017-07-15T03:27:47.925Z,3.60
2017-07-15T03:30:14.550Z,5.23
2017-07-15T03:32:41.183Z,3.80
2017-07-15T03:35:07.821Z,3.93
2017-07-15T03:37:34.470Z,3.30
2017-07-15T03:40:01.100Z,4.00
2017-07-15T03:42:27.751Z,5.47
2017-07-15T03:44:54.371Z,5.10
2017-07-15T03:47:21.015Z,5.50
2017-07-15T03:49:47.657Z,5.70
2017-07-15T03:52:14.287Z,4.73
2017-07-15T03:54:40.932Z,8.63
2017-07-15T03:57:07.579Z,4.67
2017-07-15T03:59:34.207Z,5.27
2017-07-15T04:02:00.831Z,5.00
2017-07-15T04:04:27.491Z,4.47
2017-07-15T04:06:54.112Z,3.90
2017-07-15T04:09:20.751Z,5.30
2017-07-15T04:11:47.429Z,5.17
2017-07-15T04:14:14.043Z,4.50
2017-07-15T04:16:40.663Z,4.83
2017-07-15T04:19:07.299Z,5.03
2017-07-15T04:21:33.933Z,5.33
2017-07-15T04:24:00.543Z,4.70
2017-07-15T04:26:27.180Z,5.57
2017-07-15T04:28:53.841Z,4.47
2017-07-15T04:31:20.456Z,5.60
2017-07-15T04:33:47.085Z,4.63
2017-07-15T04:36:13.728Z,5.30
2017-07-15T04:38:40.353Z,5.20
2017-07-15T04:41:06.994Z,4.27
2017-07-15T04:43:33.609Z,3.47
2017-07-15T04:46:00.251Z,4.10
2017-07-15T04:48:26.873Z,3.90
2017-07-15T04:50:53.510Z,4.37
2017-07-15T04:53:20.120Z,3.47
2017-07-15T04:55:46.775Z,4.97
2017-07-15T04:58:13.400Z,3.73
2017-07-15T05:00:40.012Z,4.33
2017-07-15T05:03:06.651Z,4.40
2017-07-15T05:05:33.268Z,4.53
2017-07-15T05:07:59.915Z,5.00
2017-07-15T05:10:26.544Z,3.73
2017-07-15T05:12:53.196Z,3.50
2017-07-15T05:15:19.815Z,4.30
2017-07-15T05:17:46.488Z,3.00
2017-07-15T05:20:13.100Z,3.40
2017-07-15T05:22:39.718Z,3.83
2017-07-15T05:25:06.370Z,4.67
2017-07-15T05:27:33.007Z,4.67
2017-07-15T05:30:00.446Z,3.47
2017-07-15T05:32:27.063Z,4.03
2017-07-15T05:34:53.712Z,4.30
2017-07-15T05:37:20.330Z,5.10
2017-07-15T05:39:46.948Z,4.90
2017-07-15T05:42:13.628Z,3.60
2017-07-15T05:44:40.260Z,3.20
2017-07-15T05:47:06.884Z,2.77
2017-07-15T05:49:33.504Z,4.30
2017-07-15T05:52:00.156Z,4.80
2017-07-15T05:54:26.796Z,4.00
2017-07-15T05:56:53.432Z,4.80
2017-07-15T05:59:20.094Z,5.60
2017-07-15T06:01:46.719Z,3.80
2017-07-15T06:04:13.369Z,4.17
2017-07-15T06:06:39.999Z,4.23
2017-07-15T06:09:06.645Z,3.30
2017-07-15T06:11:33.262Z,4.03
2017-07-15T06:13:59.895Z,3.10
2017-07-15T06:16:26.555Z,5.20
2017-07-15T06:18:53.201Z,4.50
2017-07-15T06:21:19.812Z,3.93
2017-07-15T06:23:46.499Z,3.40
2017-07-15T06:26:13.129Z,3.37
2017-07-15T06:28:39.809Z,3.50
2017-07-15T06:31:06.434Z,2.63
2017-07-15T06:33:33.061Z,4.80
2017-07-15T06:35:59.708Z,3.20
2017-07-15T06:38:26.344Z,4.57
2017-07-15T06:40:52.989Z,3.33
2017-07-15T06:43:19.621Z,3.77
2017-07-15T06:45:46.264Z,3.03
2017-07-15T06:48:13.738Z,3.23
2017-07-15T06:50:40.352Z,3.80
2017-07-15T06:53:06.984Z,2.70
2017-07-15T06:55:33.621Z,3.17
2017-07-15T06:58:00.281Z,4.23
2017-07-15T07:00:26.926Z,2.37
2017-07-15T07:02:53.575Z,2.43
2017-07-15T07:05:20.228Z,3.87
2017-07-15T07:07:46.865Z,3.63
2017-07-15T07:10:13.500Z,3.67
2017-07-15T07:12:40.140Z,3.83
2017-07-15T07:15:06.780Z,3.30
2017-07-15T07:17:33.431Z,3.80
2017-07-15T07:20:00.063Z,2.90
2017-07-15T07:22:26.710Z,2.00
2017-07-15T07:24:53.353Z,4.10
2017-07-15T07:27:20.043Z,2.73
2017-07-15T07:29:46.794Z,4.00
2017-07-15T07:32:14.374Z,3.07
2017-07-15T07:34:41.024Z,2.73
2017-07-15T07:37:08.403Z,2.80
2017-07-15T07:39:35.033Z,2.80
2017-07-15T07:42:01.682Z,4.50
2017-07-15T07:44:29.007Z,5.13
2017-07-15T07:46:55.661Z,2.90
2017-07-15T07:49:22.288Z,3.43
2017-07-15T07:51:49.501Z,2.20
2017-07-15T07:54:16.162Z,2.53
2017-07-15T07:56:42.791Z,1.60
2017-07-15T07:59:09.441Z,1.87
2017-07-15T08:01:36.071Z,3.43
2017-07-15T08:04:02.697Z,1.60
2017-07-15T08:06:29.353Z,1.60
2017-07-15T08:08:55.975Z,1.63
2017-07-15T08:11:22.626Z,1.33
2017-07-15T08:13:49.275Z,1.50
2017-07-15T08:16:16.232Z,1.10
2017-07-15T08:18:42.865Z,1.30
2017-07-15T08:21:09.499Z,1.67
2017-07-15T08:23:36.480Z,1.87
2017-07-15T08:26:03.107Z,2.97
2017-07-15T08:28:29.767Z,3.37
2017-07-15T08:30:56.384Z,3.20
2017-07-15T08:33:23.052Z,2.30
2017-07-15T08:35:49.684Z,1.70
2017-07-15T08:38:16.865Z,1.23
2017-07-15T08:40:43.492Z,1.90
2017-07-15T08:43:10.112Z,2.10
2017-07-15T08:45:37.490Z,2.03
2017-07-15T08:48:04.116Z,2.40
2017-07-15T08:50:30.746Z,3.33
2017-07-15T08:52:57.394Z,5.40
2017-07-15T08:55:24.051Z,4.60
2017-07-15T08:57:50.691Z,3.93
2017-07-15T09:00:17.334Z,1.43
2017-07-15T09:02:43.972Z,3.07
2017-07-15T09:05:10.588Z,2.80
2017-07-15T09:07:37.220Z,1.80
2017-07-15T09:10:04.836Z,3.00
2017-07-15T09:12:31.450Z,5.30
2017-07-15T09:14:58.109Z,6.00
2017-07-15T09:17:24.737Z,3.50
2017-07-15T09:19:51.368Z,2.70
2017-07-15T09:22:17.997Z,2.40
2017-07-15T09:24:44.664Z,1.93
2017-07-15T09:27:11.279Z,2.13
2017-07-15T09:29:37.933Z,1.30
2017-07-15T09:32:04.555Z,1.47
2017-07-15T09:34:31.191Z,1.63
2017-07-15T09:36:57.807Z,1.20
2017-07-15T09:39:24.464Z,1.10
2017-07-15T09:41:51.095Z,0.83
2017-07-15T09:44:18.059Z,1.50
2017-07-15T09:46:44.695Z,3.30
2017-07-15T09:49:11.333Z,2.23
2017-07-15T09:51:37.961Z,2.73
2017-07-15T09:54:04.593Z,3.87
2017-07-15T09:56:31.221Z,2.40
2017-07-15T09:58:57.862Z,1.13
2017-07-15T10:01:24.905Z,0.93
2017-07-15T10:03:51.529Z,1.10
2017-07-15T10:06:18.172Z,1.20
2017-07-15T10:08:46.030Z,1.80
2017-07-15T10:11:12.695Z,1.40
2017-07-15T10:13:39.317Z,1.57
2017-07-15T10:16:05.941Z,2.43
2017-07-15T10:18:32.606Z,1.50
2017-07-15T10:20:59.238Z,1.90
2017-07-15T10:23:25.907Z,1.47
2017-07-15T10:25:52.535Z,1.30
2017-07-15T10:28:19.158Z,3.27
2017-07-15T10:30:45.819Z,1.87
2017-07-15T10:33:12.442Z,1.67
2017-07-15T10:35:39.116Z,1.17
2017-07-15T10:38:05.725Z,0.60
2017-07-15T10:40:32.386Z,1.20
2017-07-15T10:42:59.041Z,1.23
2017-07-15T10:45:25.651Z,2.17
2017-07-15T10:47:52.606Z,3.40
2017-07-15T10:50:19.216Z,1.50
2017-07-15T10:52:45.935Z,1.20
2017-07-15T10:55:12.557Z,1.17
2017-07-15T10:57:39.177Z,1.27
2017-07-15T11:00:05.817Z,2.10
2017-07-15T11:02:32.432Z,1.37
2017-07-15T11:04:59.049Z,1.10
2017-07-15T11:07:25.697Z,1.47
2017-07-15T11:09:52.349Z,2.17
2017-07-15T11:12:18.968Z,2.23
2017-07-15T11:14:46.259Z,2.13
2017-07-15T11:17:12.918Z,1.60
2017-07-15T11:19:39.543Z,0.63
2017-07-15T11:22:06.179Z,2.60
2017-07-15T11:24:32.816Z,0.97
2017-07-15T11:26:59.480Z,3.13
2017-07-15T11:29:26.133Z,3.20
2017-07-15T11:31:52.749Z,0.80
2017-07-15T11:34:19.387Z,0.93
2017-07-15T11:36:46.023Z,1.90
2017-07-15T11:39:12.647Z,3.53
2017-07-15T11:41:39.288Z,3.33
2017-07-15T11:44:06.029Z,9.17
2017-07-15T11:46:32.696Z,2.40
2017-07-15T11:48:59.340Z,0.87
2017-07-15T11:51:25.964Z,0.70
2017-07-15T11:53:52.648Z,2.50
2017-07-15T11:56:19.288Z,3.60
2017-07-15T11:58:45.887Z,1.83
2017-07-15T12:01:12.506Z,2.37
2017-07-15T12:03:39.176Z,2.97
2017-07-15T12:06:05.822Z,3.60
2017-07-15T12:08:32.449Z,1.20
2017-07-15T12:10:59.117Z,1.83
2017-07-15T12:13:25.744Z,1.30
2017-07-15T12:15:52.379Z,1.20
2017-07-15T12:18:18.987Z,1.47
2017-07-15T12:20:45.654Z,1.00
2017-07-15T12:23:12.274Z,2.43
2017-07-15T12:25:38.906Z,1.57
2017-07-15T12:28:05.552Z,4.63
2017-07-15T12:30:32.180Z,3.00
2017-07-15T12:32:58.833Z,1.30
2017-07-15T12:35:25.456Z,0.97
2017-07-15T12:37:52.080Z,1.00
2017-07-15T12:40:18.741Z,1.13
2017-07-15T12:42:45.368Z,0.80
2017-07-15T12:45:12.012Z,1.23
2017-07-15T12:47:38.624Z,2.17
2017-07-15T12:50:05.251Z,2.43
2017-07-15T12:52:31.901Z,1.10
2017-07-15T12:54:58.516Z,3.13
2017-07-15T12:57:25.148Z,2.50
2017-07-15T12:59:51.780Z,1.50
2017-07-15T13:02:18.393Z,1.50
2017-07-15T13:04:45.028Z,4.47
2017-07-15T13:07:11.776Z,4.80
2017-07-15T13:09:38.432Z,4.83
2017-07-15T13:12:05.078Z,2.10
2017-07-15T13:14:31.685Z,0.70
2017-07-15T13:16:58.363Z,1.60
2017-07-15T13:19:25.015Z,0.80
2017-07-15T13:21:51.635Z,1.17
2017-07-15T13:24:18.269Z,0.77
2017-07-15T13:26:44.929Z,1.10
2017-07-15T13:29:11.552Z,1.60
2017-07-15T13:31:38.173Z,1.10
2017-07-15T13:34:04.815Z,1.07
2017-07-15T13:36:31.427Z,1.93
2017-07-15T13:38:58.564Z,2.80
2017-07-15T13:41:25.205Z,2.40
2017-07-15T13:43:51.825Z,1.23
2017-07-15T13:46:18.497Z,0.83
2017-07-15T13:48:45.121Z,0.83
2017-07-15T13:51:11.753Z,0.93
2017-07-15T13:53:38.400Z,0.80
2017-07-15T13:56:05.064Z,0.90
2017-07-15T13:58:31.697Z,1.27
2017-07-15T14:00:58.323Z,2.23
2017-07-15T14:03:24.987Z,1.60
2017-07-15T14:05:52.116Z,0.90
2017-07-15T14:08:19.509Z,1.03
2017-07-15T14:10:46.157Z,1.27
2017-07-15T14:13:12.782Z,1.60
2017-07-15T14:15:39.415Z,2.60
2017-07-15T14:18:06.054Z,1.70
2017-07-15T14:20:32.673Z,0.90
2017-07-15T14:22:59.297Z,1.30
2017-07-15T14:25:25.939Z,1.70
2017-07-15T14:27:52.595Z,1.10
2017-07-15T14:30:19.225Z,1.83
2017-07-15T14:32:47.200Z,1.60
2017-07-15T14:35:13.846Z,2.03
2017-07-15T14:37:40.474Z,2.10
2017-07-15T14:40:07.149Z,1.53
2017-07-15T14:42:33.773Z,1.70
2017-07-15T14:45:00.411Z,2.10
2017-07-15T14:47:27.019Z,1.83
2017-07-15T14:49:53.653Z,1.80
2017-07-15T14:52:20.277Z,2.73
2017-07-15T14:54:46.918Z,1.40
2017-07-15T14:57:13.565Z,2.10
2017-07-15T14:59:40.189Z,2.40
2017-07-15T15:02:06.847Z,3.50
2017-07-15T15:04:33.496Z,4.17
2017-07-15T15:07:00.124Z,3.07
2017-07-15T15:09:26.776Z,3.27
2017-07-15T15:11:54.260Z,3.40
2017-07-15T15:14:20.884Z,3.83
2017-07-15T15:16:47.515Z,3.00
2017-07-15T15:19:14.172Z,3.00
2017-07-15T15:21:40.803Z,4.23
2017-07-15T15:24:07.440Z,2.30
2017-07-15T15:26:34.069Z,3.70
2017-07-15T15:29:00.683Z,2.60
2017-07-15T15:31:27.313Z,2.43
2017-07-15T15:33:53.944Z,2.30
2017-07-15T15:36:20.613Z,2.87
2017-07-15T15:38:47.269Z,2.20
2017-07-15T15:41:13.888Z,2.37
2017-07-15T15:43:40.540Z,2.63
2017-07-15T15:46:07.181Z,2.33
2017-07-15T15:48:33.799Z,2.10
2017-07-15T15:51:00.430Z,2.10
2017-07-15T15:53:27.089Z,2.20
2017-07-15T15:55:53.721Z,2.70
2017-07-15T15:58:20.337Z,2.50
2017-07-15T16:00:46.979Z,2.60
2017-07-15T16:03:13.618Z,3.23
2017-07-15T16:05:40.311Z,2.43
2017-07-15T16:08:06.958Z,3.10
2017-07-15T16:10:33.589Z,2.90
2017-07-15T16:13:00.205Z,3.03
2017-07-15T16:15:26.851Z,2.40
2017-07-15T16:17:53.497Z,2.30
2017-07-15T16:20:20.152Z,2.30
2017-07-15T16:22:46.784Z,3.00
2017-07-15T16:25:13.451Z,2.70
2017-07-15T16:27:40.093Z,2.97
2017-07-15T16:30:06.708Z,2.97
2017-07-15T16:32:33.359Z,2.90
2017-07-15T16:35:00.016Z,2.67
2017-07-15T16:37:26.643Z,3.07
2017-07-15T16:39:53.283Z,2.47
2017-07-15T16:42:19.953Z,3.17
2017-07-15T16:44:46.576Z,3.10
2017-07-15T16:47:13.208Z,2.60
2017-07-15T16:49:39.942Z,2.77
2017-07-15T16:52:06.572Z,2.20
2017-07-15T16:54:36.210Z,2.90
2017-07-15T16:57:04.138Z,3.07
2017-07-15T16:59:30.757Z,3.00
2017-07-15T17:01:57.379Z,2.30
2017-07-15T17:04:24.044Z,2.23
2017-07-15T17:06:50.691Z,2.53
2017-07-15T17:09:24.028Z,2.13
2017-07-15T17:11:56.120Z,2.53
2017-07-15T17:14:22.758Z,2.80
2017-07-15T17:16:49.466Z,2.37
2017-07-15T17:19:16.134Z,2.53
2017-07-15T17:21:43.657Z,2.00
2017-07-15T17:24:10.298Z,3.00
2017-07-15T17:26:36.927Z,2.10
2017-07-15T17:29:03.574Z,2.67
2017-07-15T17:31:30.214Z,2.03
2017-07-15T17:33:56.858Z,2.80
2017-07-15T17:36:23.537Z,2.43
2017-07-15T17:38:50.202Z,2.23
2017-07-15T17:41:16.838Z,2.80
2017-07-15T17:43:43.472Z,2.80
2017-07-15T17:46:10.109Z,2.50
2017-07-15T17:48:39.923Z,2.30
2017-07-15T17:51:06.552Z,2.03
2017-07-15T17:53:33.517Z,2.10
2017-07-15T17:56:00.495Z,3.00
2017-07-15T17:58:27.117Z,2.23
2017-07-15T18:00:53.752Z,2.40
2017-07-15T18:03:20.391Z,2.33
2017-07-15T18:05:47.764Z,2.57
2017-07-15T18:08:15.821Z,2.27
2017-07-15T18:10:43.113Z,2.20
2017-07-15T18:13:09.879Z,2.60
2017-07-15T18:15:36.540Z,1.93
2017-07-15T18:18:04.533Z,2.27
2017-07-15T18:20:31.142Z,2.40
2017-07-15T18:22:59.900Z,2.80
2017-07-15T18:25:26.517Z,3.20
2017-07-15T18:27:53.906Z,3.00
2017-07-15T18:30:20.553Z,2.70
2017-07-15T18:32:49.340Z,2.70
2017-07-15T18:35:16.003Z,2.43
2017-07-15T18:37:43.631Z,2.77
2017-07-15T18:40:10.284Z,3.90
2017-07-15T18:42:36.923Z,3.10
2017-07-15T18:45:03.546Z,2.80
2017-07-15T18:47:30.191Z,2.73
2017-07-15T18:49:56.832Z,3.10
2017-07-15T18:52:23.462Z,3.20
2017-07-15T18:54:50.095Z,3.00
2017-07-15T18:57:18.288Z,4.00
2017-07-15T18:59:44.914Z,4.13
2017-07-15T19:02:11.579Z,4.07
2017-07-15T19:04:38.255Z,4.27
2017-07-15T19:07:04.874Z,3.80
2017-07-15T19:09:31.515Z,4.60
2017-07-15T19:11:58.148Z,4.47
2017-07-15T19:14:28.618Z,4.50
2017-07-15T19:16:55.265Z,4.40
2017-07-15T19:19:23.340Z,3.83
2017-07-15T19:21:49.962Z,4.93
2017-07-15T19:24:16.808Z,3.00
2017-07-15T19:26:45.060Z,3.50
2017-07-15T19:29:13.511Z,3.40
2017-07-15T19:31:40.127Z,4.40
2017-07-15T19:34:06.809Z,3.60
2017-07-15T19:36:34.682Z,3.50
2017-07-15T19:39:01.302Z,3.97
2017-07-15T19:41:30.019Z,3.50
2017-07-15T19:43:58.738Z,4.10
2017-07-15T19:46:30.100Z,3.90
2017-07-15T19:48:57.963Z,4.07
2017-07-15T19:51:25.105Z,4.03
2017-07-15T19:53:51.765Z,3.80
2017-07-15T19:56:22.071Z,3.90
2017-07-15T19:58:48.688Z,3.87
2017-07-15T20:01:18.664Z,4.20
2017-07-15T20:03:45.872Z,4.80
2017-07-15T20:06:12.519Z,4.60
2017-07-15T20:08:39.179Z,4.90
2017-07-15T20:11:05.820Z,4.10
2017-07-15T20:13:34.112Z,4.70
2017-07-15T20:16:00.770Z,4.47
2017-07-15T20:18:27.399Z,4.47
2017-07-15T20:20:56.230Z,3.67
2017-07-15T20:23:24.978Z,4.33
2017-07-15T20:25:53.989Z,4.10
2017-07-15T20:28:23.081Z,3.57
2017-07-15T20:30:49.689Z,4.23
2017-07-15T20:33:17.700Z,4.07
2017-07-15T20:35:51.649Z,4.00
2017-07-15T20:38:23.276Z,5.90
2017-07-15T20:40:50.205Z,4.13
2017-07-15T20:43:16.823Z,4.90
2017-07-15T20:45:45.897Z,5.17
2017-07-15T20:48:13.940Z,4.37
2017-07-15T20:50:42.991Z,4.73
2017-07-15T20:53:17.933Z,5.40
2017-07-15T20:55:44.624Z,4.67
2017-07-15T20:58:12.170Z,4.80
2017-07-15T21:00:39.743Z,4.53
2017-07-15T21:03:07.153Z,5.37
2017-07-15T21:05:34.464Z,4.40
2017-07-15T21:08:01.089Z,5.30
2017-07-15T21:10:27.752Z,5.17
2017-07-15T21:12:54.393Z,4.90
2017-07-15T21:15:21.051Z,4.90
2017-07-15T21:17:47.690Z,4.73
2017-07-15T21:20:14.312Z,4.90
2017-07-15T21:22:40.965Z,4.27
2017-07-15T21:25:08.421Z,4.80
2017-07-15T21:27:35.085Z,4.70
2017-07-15T21:30:01.712Z,6.93
2017-07-15T21:32:28.347Z,4.57
2017-07-15T21:34:54.991Z,5.00
2017-07-15T21:37:21.626Z,4.60
2017-07-15T21:39:48.288Z,5.23
2017-07-15T21:42:14.941Z,5.10
2017-07-15T21:44:41.600Z,4.50
2017-07-15T21:47:08.275Z,5.33
2017-07-15T21:49:34.928Z,4.33
2017-07-15T21:52:01.577Z,5.10
2017-07-15T21:54:28.207Z,5.33
2017-07-15T21:56:54.893Z,5.23
2017-07-15T21:59:22.205Z,4.20
2017-07-15T22:01:49.975Z,4.63
2017-07-15T22:04:16.721Z,4.10
2017-07-15T22:06:43.363Z,3.93
2017-07-15T22:09:10.712Z,4.30
2017-07-15T22:11:37.380Z,3.90
2017-07-15T22:14:04.004Z,3.60
2017-07-15T22:16:31.975Z,4.30
2017-07-15T22:18:58.609Z,5.20
2017-07-15T22:21:25.249Z,5.17
2017-07-15T22:23:51.860Z,3.97
2017-07-15T22:26:18.522Z,4.90
2017-07-15T22:28:45.165Z,5.00
2017-07-15T22:31:11.945Z,4.03
2017-07-15T22:33:38.576Z,4.77
2017-07-15T22:36:05.206Z,5.10
2017-07-15T22:38:32.591Z,4.90
2017-07-15T22:40:59.261Z,4.57
2017-07-15T22:43:25.908Z,4.53
2017-07-15T22:45:52.554Z,5.10
2017-07-15T22:48:22.245Z,4.80
2017-07-15T22:50:49.779Z,4.47
2017-07-15T22:53:17.289Z,4.10
2017-07-15T22:55:44.671Z,4.50
2017-07-15T22:58:11.291Z,4.37
2017-07-15T23:00:37.928Z,5.23
2017-07-15T23:03:04.544Z,5.30
2017-07-15T23:05:32.266Z,4.60
2017-07-15T23:07:58.900Z,4.03
2017-07-15T23:10:25.535Z,4.60
2017-07-15T23:12:52.208Z,4.47
2017-07-15T23:15:19.353Z,4.93
2017-07-15T23:17:45.977Z,5.13
2017-07-15T23:20:12.643Z,5.47
2017-07-15T23:22:39.260Z,5.33
2017-07-15T23:25:05.884Z,5.00
2017-07-15T23:27:32.508Z,5.07
2017-07-15T23:29:59.140Z,5.47
2017-07-15T23:32:25.778Z,5.30
2017-07-15T23:34:52.415Z,4.90
2017-07-15T23:37:19.082Z,5.70
2017-07-15T23:39:45.723Z,5.10
2017-07-15T23:42:12.337Z,4.93
2017-07-15T23:44:38.973Z,4.67
2017-07-15T23:47:05.606Z,4.47
2017-07-15T23:49:32.225Z,4.73
2017-07-15T23:51:58.864Z,5.10
2017-07-15T23:54:25.516Z,4.67
2017-07-15T23:56:52.165Z,5.50
2017-07-15T23:59:18.801Z,4.67
